sensor_id;sensor_type;location;lat;lon;timestamp;pressure;altitude;pressure_sealevel;temperature;humidity
37170;BME280;23062;13.952;100.608;2023-02-28T00:03:56;1016.86;;;27.53;45.35
37170;BME280;23062;13.952;100.608;2023-02-28T00:08:21;1016.89;;;27.51;45.56
37170;BME280;23062;13.952;100.608;2023-02-28T00:12:48;1016.97;;;27.50;45.42
37170;BME280;23062;13.952;100.608;2023-02-28T00:17:14;1016.98;;;27.52;45.35
37170;BME280;23062;13.952;100.608;2023-02-28T00:21:42;1017.02;;;27.53;45.39
37170;BME280;23062;13.952;100.608;2023-02-28T00:26:08;1017.04;;;27.56;45.08
37170;BME280;23062;13.952;100.608;2023-02-28T00:30:33;1017.12;;;27.59;44.65
37170;BME280;23062;13.952;100.608;2023-02-28T00:34:57;1017.12;;;27.63;44.33
37170;BME280;23062;13.952;100.608;2023-02-28T00:39:23;1017.22;;;27.68;43.62
37170;BME280;23062;13.952;100.608;2023-02-28T00:43:48;1017.26;;;27.71;43.80
37170;BME280;23062;13.952;100.608;2023-02-28T00:48:25;1017.30;;;27.75;43.47
37170;BME280;23062;13.952;100.608;2023-02-28T00:52:52;1017.30;;;27.79;42.86
37170;BME280;23062;13.952;100.608;2023-02-28T00:57:18;1017.34;;;27.86;42.75
37170;BME280;23062;13.952;100.608;2023-02-28T01:01:45;1017.37;;;27.89;41.75
37170;BME280;23062;13.952;100.608;2023-02-28T01:06:20;1017.41;;;27.95;41.81
37170;BME280;23062;13.952;100.608;2023-02-28T01:10:52;1017.47;;;28.00;41.97
37170;BME280;23062;13.952;100.608;2023-02-28T01:15:17;1017.54;;;28.04;42.46
37170;BME280;23062;13.952;100.608;2023-02-28T01:19:43;1017.60;;;28.06;41.94
37170;BME280;23062;13.952;100.608;2023-02-28T01:24:08;1017.66;;;28.06;41.97
37170;BME280;23062;13.952;100.608;2023-02-28T01:28:34;1017.68;;;28.08;42.18
37170;BME280;23062;13.952;100.608;2023-02-28T01:33:03;1017.72;;;28.09;42.44
37170;BME280;23062;13.952;100.608;2023-02-28T01:37:28;1017.73;;;28.11;41.83
37170;BME280;23062;13.952;100.608;2023-02-28T01:41:53;1017.77;;;28.15;42.48
37170;BME280;23062;13.952;100.608;2023-02-28T01:46:18;1017.80;;;28.19;42.65
37170;BME280;23062;13.952;100.608;2023-02-28T01:50:45;1017.84;;;28.18;41.75
37170;BME280;23062;13.952;100.608;2023-02-28T01:55:13;1017.92;;;28.22;41.79
37170;BME280;23062;13.952;100.608;2023-02-28T01:59:48;1017.96;;;28.23;41.01
37170;BME280;23062;13.952;100.608;2023-02-28T02:04:15;1018.01;;;28.27;41.47
37170;BME280;23062;13.952;100.608;2023-02-28T02:08:40;1018.00;;;28.24;40.14
37170;BME280;23062;13.952;100.608;2023-02-28T02:18:09;1018.12;;;28.30;41.37
37170;BME280;23062;13.952;100.608;2023-02-28T02:32:35;1018.21;;;28.40;39.42
37170;BME280;23062;13.952;100.608;2023-02-28T02:46:20;1018.37;;;28.47;39.67
37170;BME280;23062;13.952;100.608;2023-02-28T02:50:57;1018.36;;;28.54;40.27
37170;BME280;23062;13.952;100.608;2023-02-28T02:55:23;1018.41;;;28.51;38.07
37170;BME280;23062;13.952;100.608;2023-02-28T02:59:51;1018.40;;;28.56;38.94
37170;BME280;23062;13.952;100.608;2023-02-28T03:04:19;1018.44;;;28.61;39.59
37170;BME280;23062;13.952;100.608;2023-02-28T03:08:44;1018.39;;;28.67;39.26
37170;BME280;23062;13.952;100.608;2023-02-28T03:13:33;1018.37;;;28.67;38.94
37170;BME280;23062;13.952;100.608;2023-02-28T03:18:04;1018.37;;;28.71;39.07
37170;BME280;23062;13.952;100.608;2023-02-28T03:27:29;1018.28;;;28.72;39.50
37170;BME280;23062;13.952;100.608;2023-02-28T03:31:41;1018.26;;;28.79;37.99
37170;BME280;23062;13.952;100.608;2023-02-28T03:36:16;1018.21;;;28.80;38.76
37170;BME280;23062;13.952;100.608;2023-02-28T03:40:45;1018.16;;;28.86;38.48
37170;BME280;23062;13.952;100.608;2023-02-28T03:45:21;1018.17;;;28.91;37.82
37170;BME280;23062;13.952;100.608;2023-02-28T03:49:57;1018.10;;;29.01;36.90
37170;BME280;23062;13.952;100.608;2023-02-28T03:54:26;1018.05;;;28.97;37.78
37170;BME280;23062;13.952;100.608;2023-02-28T04:03:53;1017.90;;;29.03;38.21
37170;BME280;23062;13.952;100.608;2023-02-28T04:08:18;1017.85;;;29.03;38.63
37170;BME280;23062;13.952;100.608;2023-02-28T04:12:43;1017.78;;;29.00;39.07
37170;BME280;23062;13.952;100.608;2023-02-28T04:17:10;1017.62;;;29.05;38.96
37170;BME280;23062;13.952;100.608;2023-02-28T04:21:38;1017.54;;;29.05;39.08
37170;BME280;23062;13.952;100.608;2023-02-28T04:26:03;1017.49;;;29.10;39.13
37170;BME280;23062;13.952;100.608;2023-02-28T04:30:30;1017.42;;;29.13;38.88
37170;BME280;23062;13.952;100.608;2023-02-28T04:34:56;1017.36;;;29.13;38.80
37170;BME280;23062;13.952;100.608;2023-02-28T04:39:23;1017.21;;;29.19;38.35
37170;BME280;23062;13.952;100.608;2023-02-28T04:43:54;1017.19;;;29.21;38.60
37170;BME280;23062;13.952;100.608;2023-02-28T04:48:19;1017.09;;;29.23;39.02
37170;BME280;23062;13.952;100.608;2023-02-28T04:52:44;1016.96;;;29.25;38.72
37170;BME280;23062;13.952;100.608;2023-02-28T04:57:10;1016.88;;;29.25;38.75
37170;BME280;23062;13.952;100.608;2023-02-28T05:01:40;1016.81;;;29.30;38.64
37170;BME280;23062;13.952;100.608;2023-02-28T05:06:07;1016.73;;;29.33;38.44
37170;BME280;23062;13.952;100.608;2023-02-28T05:10:34;1016.60;;;29.39;38.22
37170;BME280;23062;13.952;100.608;2023-02-28T05:14:59;1016.60;;;29.42;38.31
37170;BME280;23062;13.952;100.608;2023-02-28T05:19:26;1016.47;;;29.45;38.54
37170;BME280;23062;13.952;100.608;2023-02-28T05:23:53;1016.43;;;29.46;38.69
37170;BME280;23062;13.952;100.608;2023-02-28T05:28:18;1016.32;;;29.47;38.54
37170;BME280;23062;13.952;100.608;2023-02-28T05:32:43;1016.23;;;29.51;38.52
37170;BME280;23062;13.952;100.608;2023-02-28T05:37:11;1016.16;;;29.53;38.36
37170;BME280;23062;13.952;100.608;2023-02-28T05:41:35;1016.06;;;29.59;38.22
37170;BME280;23062;13.952;100.608;2023-02-28T05:46:02;1015.96;;;29.75;37.22
37170;BME280;23062;13.952;100.608;2023-02-28T05:50:28;1015.89;;;29.69;37.70
37170;BME280;23062;13.952;100.608;2023-02-28T05:54:53;1015.85;;;29.67;37.91
37170;BME280;23062;13.952;100.608;2023-02-28T05:59:18;1015.74;;;29.70;37.99
37170;BME280;23062;13.952;100.608;2023-02-28T06:03:42;1015.71;;;29.74;38.08
37170;BME280;23062;13.952;100.608;2023-02-28T06:08:07;1015.64;;;29.73;38.20
37170;BME280;23062;13.952;100.608;2023-02-28T06:12:32;1015.59;;;29.81;38.04
37170;BME280;23062;13.952;100.608;2023-02-28T06:16:58;1015.48;;;29.84;37.97
37170;BME280;23062;13.952;100.608;2023-02-28T06:21:24;1015.35;;;29.83;37.98
37170;BME280;23062;13.952;100.608;2023-02-28T06:25:52;1015.15;;;29.81;38.21
37170;BME280;23062;13.952;100.608;2023-02-28T06:30:20;1015.06;;;29.82;38.24
37170;BME280;23062;13.952;100.608;2023-02-28T06:34:53;1014.90;;;29.85;37.73
37170;BME280;23062;13.952;100.608;2023-02-28T06:39:23;1014.83;;;29.92;37.93
37170;BME280;23062;13.952;100.608;2023-02-28T06:43:48;1014.80;;;29.87;38.16
37170;BME280;23062;13.952;100.608;2023-02-28T06:48:16;1014.59;;;29.92;37.94
37170;BME280;23062;13.952;100.608;2023-02-28T06:52:42;1014.49;;;29.96;37.76
37170;BME280;23062;13.952;100.608;2023-02-28T06:57:07;1014.40;;;29.94;37.76
37170;BME280;23062;13.952;100.608;2023-02-28T07:01:32;1014.30;;;29.97;37.91
37170;BME280;23062;13.952;100.608;2023-02-28T07:05:57;1014.25;;;29.99;38.02
37170;BME280;23062;13.952;100.608;2023-02-28T07:10:23;1014.16;;;30.06;37.43
37170;BME280;23062;13.952;100.608;2023-02-28T07:14:48;1014.10;;;30.07;37.60
37170;BME280;23062;13.952;100.608;2023-02-28T07:19:13;1014.03;;;30.03;37.85
37170;BME280;23062;13.952;100.608;2023-02-28T07:23:39;1014.05;;;30.11;37.83
37170;BME280;23062;13.952;100.608;2023-02-28T07:28:05;1014.00;;;30.09;37.98
37170;BME280;23062;13.952;100.608;2023-02-28T07:32:30;1013.98;;;30.17;37.65
37170;BME280;23062;13.952;100.608;2023-02-28T07:36:55;1013.92;;;30.23;37.37
37170;BME280;23062;13.952;100.608;2023-02-28T07:41:22;1013.81;;;30.23;37.59
37170;BME280;23062;13.952;100.608;2023-02-28T07:45:48;1013.75;;;30.21;37.68
37170;BME280;23062;13.952;100.608;2023-02-28T07:50:15;1013.73;;;30.17;37.92
37170;BME280;23062;13.952;100.608;2023-02-28T07:54:41;1013.63;;;30.19;37.93
37170;BME280;23062;13.952;100.608;2023-02-28T07:59:06;1013.62;;;30.20;37.91
37170;BME280;23062;13.952;100.608;2023-02-28T08:03:39;1013.60;;;30.21;37.97
37170;BME280;23062;13.952;100.608;2023-02-28T08:08:04;1013.54;;;30.24;37.96
37170;BME280;23062;13.952;100.608;2023-02-28T08:12:29;1013.52;;;30.20;37.92
37170;BME280;23062;13.952;100.608;2023-02-28T08:16:55;1013.45;;;30.24;37.82
37170;BME280;23062;13.952;100.608;2023-02-28T08:21:21;1013.45;;;30.27;37.63
37170;BME280;23062;13.952;100.608;2023-02-28T08:25:56;1013.47;;;30.30;37.63
37170;BME280;23062;13.952;100.608;2023-02-28T08:30:22;1013.41;;;30.32;37.52
37170;BME280;23062;13.952;100.608;2023-02-28T08:34:47;1013.42;;;30.32;37.37
37170;BME280;23062;13.952;100.608;2023-02-28T08:39:17;1013.42;;;30.32;37.44
37170;BME280;23062;13.952;100.608;2023-02-28T08:43:44;1013.40;;;30.34;37.15
37170;BME280;23062;13.952;100.608;2023-02-28T08:48:12;1013.40;;;30.32;37.23
37170;BME280;23062;13.952;100.608;2023-02-28T08:52:38;1013.42;;;30.34;37.21
37170;BME280;23062;13.952;100.608;2023-02-28T08:57:04;1013.35;;;30.34;37.21
37170;BME280;23062;13.952;100.608;2023-02-28T09:01:29;1013.36;;;30.35;37.27
37170;BME280;23062;13.952;100.608;2023-02-28T09:06:00;1013.35;;;30.37;37.30
37170;BME280;23062;13.952;100.608;2023-02-28T09:10:26;1013.30;;;30.38;37.32
37170;BME280;23062;13.952;100.608;2023-02-28T09:14:51;1013.33;;;30.38;37.26
37170;BME280;23062;13.952;100.608;2023-02-28T09:19:19;1013.30;;;30.43;37.03
37170;BME280;23062;13.952;100.608;2023-02-28T09:23:45;1013.33;;;30.44;36.97
37170;BME280;23062;13.952;100.608;2023-02-28T09:28:10;1013.33;;;30.40;37.20
37170;BME280;23062;13.952;100.608;2023-02-28T09:32:36;1013.26;;;30.40;37.25
37170;BME280;23062;13.952;100.608;2023-02-28T09:37:01;1013.22;;;30.36;37.35
37170;BME280;23062;13.952;100.608;2023-02-28T09:41:27;1013.21;;;30.36;37.66
37170;BME280;23062;13.952;100.608;2023-02-28T09:46:21;1013.25;;;30.41;38.46
37170;BME280;23062;13.952;100.608;2023-02-28T09:51:05;1013.34;;;30.40;39.03
37170;BME280;23062;13.952;100.608;2023-02-28T09:55:53;1013.34;;;30.42;39.69
37170;BME280;23062;13.952;100.608;2023-02-28T10:00:18;1013.30;;;30.46;39.95
37170;BME280;23062;13.952;100.608;2023-02-28T10:04:47;1013.34;;;30.44;40.56
37170;BME280;23062;13.952;100.608;2023-02-28T10:09:21;1013.36;;;30.34;40.75
37170;BME280;23062;13.952;100.608;2023-02-28T10:18:30;1013.43;;;30.32;41.28
37170;BME280;23062;13.952;100.608;2023-02-28T10:23:10;1013.46;;;30.32;41.23
37170;BME280;23062;13.952;100.608;2023-02-28T10:27:28;1013.50;;;30.33;41.23
37170;BME280;23062;13.952;100.608;2023-02-28T10:31:52;1013.54;;;30.34;41.06
37170;BME280;23062;13.952;100.608;2023-02-28T10:36:19;1013.56;;;30.30;41.20
37170;BME280;23062;13.952;100.608;2023-02-28T10:40:45;1013.58;;;30.31;40.70
37170;BME280;23062;13.952;100.608;2023-02-28T10:45:31;1013.53;;;30.33;39.86
37170;BME280;23062;13.952;100.608;2023-02-28T10:49:53;1013.57;;;30.25;40.03
37170;BME280;23062;13.952;100.608;2023-02-28T10:54:22;1013.57;;;30.23;40.33
37170;BME280;23062;13.952;100.608;2023-02-28T11:03:31;1013.62;;;30.21;41.13
37170;BME280;23062;13.952;100.608;2023-02-28T11:07:55;1013.67;;;30.19;41.42
37170;BME280;23062;13.952;100.608;2023-02-28T11:12:24;1013.66;;;30.16;41.66
37170;BME280;23062;13.952;100.608;2023-02-28T11:16:50;1013.71;;;30.15;41.95
37170;BME280;23062;13.952;100.608;2023-02-28T11:21:30;1013.70;;;30.15;42.03
37170;BME280;23062;13.952;100.608;2023-02-28T11:25:58;1013.79;;;30.12;42.26
37170;BME280;23062;13.952;100.608;2023-02-28T11:39:36;1013.84;;;30.09;43.02
37170;BME280;23062;13.952;100.608;2023-02-28T11:58:42;1014.06;;;30.04;43.63
37170;BME280;23062;13.952;100.608;2023-02-28T12:08:07;1014.13;;;29.98;43.73
37170;BME280;23062;13.952;100.608;2023-02-28T12:17:27;1014.28;;;30.12;43.74
37170;BME280;23062;13.952;100.608;2023-02-28T12:26:39;1014.33;;;30.27;43.30
37170;BME280;23062;13.952;100.608;2023-02-28T12:31:18;1014.39;;;30.28;43.30
37170;BME280;23062;13.952;100.608;2023-02-28T12:35:49;1014.49;;;30.28;43.31
37170;BME280;23062;13.952;100.608;2023-02-28T12:40:20;1014.53;;;30.28;43.31
37170;BME280;23062;13.952;100.608;2023-02-28T12:44:49;1014.60;;;30.28;43.35
37170;BME280;23062;13.952;100.608;2023-02-28T12:49:23;1014.68;;;30.27;43.35
37170;BME280;23062;13.952;100.608;2023-02-28T12:58:37;1014.86;;;30.28;43.40
37170;BME280;23062;13.952;100.608;2023-02-28T13:12:51;1015.05;;;30.25;43.51
37170;BME280;23062;13.952;100.608;2023-02-28T13:17:23;1015.13;;;30.25;43.55
37170;BME280;23062;13.952;100.608;2023-02-28T13:22:10;1015.23;;;30.22;43.71
37170;BME280;23062;13.952;100.608;2023-02-28T13:31:04;1015.33;;;30.22;43.63
37170;BME280;23062;13.952;100.608;2023-02-28T13:35:38;1015.35;;;30.20;43.71
37170;BME280;23062;13.952;100.608;2023-02-28T13:40:29;1015.44;;;30.19;43.73
37170;BME280;23062;13.952;100.608;2023-02-28T13:45:24;1015.48;;;30.18;43.78
37170;BME280;23062;13.952;100.608;2023-02-28T13:49:36;1015.52;;;30.17;43.90
37170;BME280;23062;13.952;100.608;2023-02-28T13:54:29;1015.57;;;30.16;44.06
37170;BME280;23062;13.952;100.608;2023-02-28T13:58:47;1015.65;;;30.15;44.08
37170;BME280;23062;13.952;100.608;2023-02-28T14:08:18;1015.75;;;30.15;44.17
37170;BME280;23062;13.952;100.608;2023-02-28T14:13:02;1015.78;;;30.14;44.25
37170;BME280;23062;13.952;100.608;2023-02-28T14:17:28;1015.80;;;30.13;44.25
37170;BME280;23062;13.952;100.608;2023-02-28T14:36:36;1015.84;;;30.11;44.49
37170;BME280;23062;13.952;100.608;2023-02-28T14:41:06;1015.87;;;30.11;44.54
37170;BME280;23062;13.952;100.608;2023-02-28T14:45:36;1015.84;;;30.09;44.55
37170;BME280;23062;13.952;100.608;2023-02-28T14:50:04;1015.79;;;30.08;44.65
37170;BME280;23062;13.952;100.608;2023-02-28T14:54:30;1015.87;;;30.08;44.68
37170;BME280;23062;13.952;100.608;2023-02-28T14:58:58;1015.81;;;30.07;44.76
37170;BME280;23062;13.952;100.608;2023-02-28T15:03:37;1015.88;;;30.06;44.74
37170;BME280;23062;13.952;100.608;2023-02-28T15:12:35;1015.87;;;30.06;44.82
37170;BME280;23062;13.952;100.608;2023-02-28T15:17:03;1015.94;;;30.06;44.81
37170;BME280;23062;13.952;100.608;2023-02-28T15:21:38;1015.95;;;30.05;44.89
37170;BME280;23062;13.952;100.608;2023-02-28T15:26:10;1015.90;;;30.04;44.92
37170;BME280;23062;13.952;100.608;2023-02-28T15:30:37;1015.90;;;30.03;44.92
37170;BME280;23062;13.952;100.608;2023-02-28T15:35:28;1015.91;;;30.03;44.96
37170;BME280;23062;13.952;100.608;2023-02-28T15:39:49;1015.93;;;30.03;44.98
37170;BME280;23062;13.952;100.608;2023-02-28T15:44:28;1015.89;;;30.02;45.07
37170;BME280;23062;13.952;100.608;2023-02-28T15:48:55;1015.96;;;30.01;45.03
37170;BME280;23062;13.952;100.608;2023-02-28T15:53:27;1015.98;;;30.02;45.11
37170;BME280;23062;13.952;100.608;2023-02-28T15:57:54;1015.99;;;30.01;45.02
37170;BME280;23062;13.952;100.608;2023-02-28T16:02:34;1016.04;;;30.00;45.02
37170;BME280;23062;13.952;100.608;2023-02-28T16:07:05;1016.06;;;29.99;45.09
37170;BME280;23062;13.952;100.608;2023-02-28T16:11:38;1016.05;;;29.98;45.08
37170;BME280;23062;13.952;100.608;2023-02-28T16:16:04;1016.09;;;29.98;45.11
37170;BME280;23062;13.952;100.608;2023-02-28T16:20:30;1016.11;;;29.98;45.04
37170;BME280;23062;13.952;100.608;2023-02-28T16:24:55;1016.13;;;29.97;45.09
37170;BME280;23062;13.952;100.608;2023-02-28T16:29:26;1016.12;;;29.96;45.15
37170;BME280;23062;13.952;100.608;2023-02-28T16:34:05;1016.11;;;29.96;45.18
37170;BME280;23062;13.952;100.608;2023-02-28T16:38:31;1016.14;;;29.94;45.05
37170;BME280;23062;13.952;100.608;2023-02-28T16:43:10;1016.09;;;29.94;45.00
37170;BME280;23062;13.952;100.608;2023-02-28T16:47:31;1016.10;;;29.94;45.03
37170;BME280;23062;13.952;100.608;2023-02-28T16:51:58;1016.06;;;29.93;45.04
37170;BME280;23062;13.952;100.608;2023-02-28T16:56:25;1016.03;;;29.93;45.07
37170;BME280;23062;13.952;100.608;2023-02-28T17:00:51;1016.06;;;29.92;45.05
37170;BME280;23062;13.952;100.608;2023-02-28T17:05:17;1016.05;;;29.91;45.10
37170;BME280;23062;13.952;100.608;2023-02-28T17:09:43;1016.05;;;29.91;45.15
37170;BME280;23062;13.952;100.608;2023-02-28T17:14:11;1015.96;;;29.90;45.23
37170;BME280;23062;13.952;100.608;2023-02-28T17:18:37;1015.96;;;29.90;45.23
37170;BME280;23062;13.952;100.608;2023-02-28T17:23:03;1015.92;;;29.89;45.22
37170;BME280;23062;13.952;100.608;2023-02-28T17:27:37;1015.92;;;29.89;45.30
37170;BME280;23062;13.952;100.608;2023-02-28T17:31:57;1015.90;;;29.88;45.41
37170;BME280;23062;13.952;100.608;2023-02-28T17:36:27;1015.83;;;29.87;45.41
37170;BME280;23062;13.952;100.608;2023-02-28T17:40:53;1015.79;;;29.87;45.41
37170;BME280;23062;13.952;100.608;2023-02-28T17:45:21;1015.74;;;29.85;45.50
37170;BME280;23062;13.952;100.608;2023-02-28T17:49:54;1015.67;;;29.85;45.49
37170;BME280;23062;13.952;100.608;2023-02-28T17:54:23;1015.67;;;29.84;45.43
37170;BME280;23062;13.952;100.608;2023-02-28T17:58:50;1015.64;;;29.83;45.48
37170;BME280;23062;13.952;100.608;2023-02-28T18:03:16;1015.57;;;29.84;45.48
37170;BME280;23062;13.952;100.608;2023-02-28T18:07:43;1015.56;;;29.82;45.52
37170;BME280;23062;13.952;100.608;2023-02-28T18:12:09;1015.53;;;29.81;45.55
37170;BME280;23062;13.952;100.608;2023-02-28T18:16:38;1015.43;;;29.82;45.63
37170;BME280;23062;13.952;100.608;2023-02-28T18:21:06;1015.34;;;29.80;45.63
37170;BME280;23062;13.952;100.608;2023-02-28T18:25:42;1015.27;;;29.79;45.65
37170;BME280;23062;13.952;100.608;2023-02-28T18:30:12;1015.17;;;29.78;45.72
37170;BME280;23062;13.952;100.608;2023-02-28T18:34:44;1015.11;;;29.78;45.73
37170;BME280;23062;13.952;100.608;2023-02-28T18:39:10;1015.02;;;29.76;45.79
37170;BME280;23062;13.952;100.608;2023-02-28T18:43:39;1014.96;;;29.77;45.82
37170;BME280;23062;13.952;100.608;2023-02-28T18:48:05;1014.88;;;29.76;45.86
37170;BME280;23062;13.952;100.608;2023-02-28T18:52:31;1014.78;;;29.74;45.88
37170;BME280;23062;13.952;100.608;2023-02-28T18:56:57;1014.71;;;29.74;45.92
37170;BME280;23062;13.952;100.608;2023-02-28T19:01:27;1014.66;;;29.74;45.92
37170;BME280;23062;13.952;100.608;2023-02-28T19:06:00;1014.60;;;29.73;45.95
37170;BME280;23062;13.952;100.608;2023-02-28T19:10:23;1014.61;;;29.73;45.99
37170;BME280;23062;13.952;100.608;2023-02-28T19:14:49;1014.50;;;29.71;46.05
37170;BME280;23062;13.952;100.608;2023-02-28T19:19:14;1014.50;;;29.71;46.08
37170;BME280;23062;13.952;100.608;2023-02-28T19:23:41;1014.47;;;29.71;46.13
37170;BME280;23062;13.952;100.608;2023-02-28T19:28:06;1014.43;;;29.70;46.13
37170;BME280;23062;13.952;100.608;2023-02-28T19:32:32;1014.40;;;29.69;46.13
37170;BME280;23062;13.952;100.608;2023-02-28T19:36:58;1014.38;;;29.68;46.12
37170;BME280;23062;13.952;100.608;2023-02-28T19:41:24;1014.38;;;29.68;46.15
37170;BME280;23062;13.952;100.608;2023-02-28T19:45:51;1014.32;;;29.67;46.18
37170;BME280;23062;13.952;100.608;2023-02-28T19:50:17;1014.29;;;29.67;46.19
37170;BME280;23062;13.952;100.608;2023-02-28T19:54:43;1014.19;;;29.65;46.20
37170;BME280;23062;13.952;100.608;2023-02-28T19:59:12;1014.14;;;29.64;46.20
37170;BME280;23062;13.952;100.608;2023-02-28T20:03:38;1014.11;;;29.61;46.22
37170;BME280;23062;13.952;100.608;2023-02-28T20:08:04;1014.09;;;29.61;46.26
37170;BME280;23062;13.952;100.608;2023-02-28T20:12:29;1014.06;;;29.60;46.31
37170;BME280;23062;13.952;100.608;2023-02-28T20:16:56;1014.04;;;29.59;46.34
37170;BME280;23062;13.952;100.608;2023-02-28T20:21:22;1014.01;;;29.58;46.38
37170;BME280;23062;13.952;100.608;2023-02-28T20:25:52;1013.98;;;29.59;46.38
37170;BME280;23062;13.952;100.608;2023-02-28T20:30:18;1014.00;;;29.57;46.35
37170;BME280;23062;13.952;100.608;2023-02-28T20:34:47;1014.01;;;29.56;46.45
37170;BME280;23062;13.952;100.608;2023-02-28T20:39:19;1014.04;;;29.55;46.52
37170;BME280;23062;13.952;100.608;2023-02-28T20:43:45;1014.04;;;29.54;46.55
37170;BME280;23062;13.952;100.608;2023-02-28T20:48:12;1013.95;;;29.53;46.55
37170;BME280;23062;13.952;100.608;2023-02-28T20:52:38;1013.89;;;29.53;46.61
37170;BME280;23062;13.952;100.608;2023-02-28T20:57:04;1013.86;;;29.51;46.64
37170;BME280;23062;13.952;100.608;2023-02-28T21:01:30;1013.87;;;29.51;46.61
37170;BME280;23062;13.952;100.608;2023-02-28T21:06:02;1013.87;;;29.44;46.90
37170;BME280;23062;13.952;100.608;2023-02-28T21:10:31;1013.90;;;29.27;47.44
37170;BME280;23062;13.952;100.608;2023-02-28T21:15:04;1013.83;;;29.14;47.71
37170;BME280;23062;13.952;100.608;2023-02-28T21:19:30;1013.82;;;28.89;48.33
37170;BME280;23062;13.952;100.608;2023-02-28T21:23:57;1013.77;;;28.70;48.94
37170;BME280;23062;13.952;100.608;2023-02-28T21:28:23;1013.79;;;28.63;49.19
37170;BME280;23062;13.952;100.608;2023-02-28T21:32:49;1013.77;;;28.71;49.11
37170;BME280;23062;13.952;100.608;2023-02-28T21:37:15;1013.71;;;28.87;48.70
37170;BME280;23062;13.952;100.608;2023-02-28T21:41:41;1013.72;;;28.91;48.43
37170;BME280;23062;13.952;100.608;2023-02-28T21:46:09;1013.71;;;28.90;48.30
37170;BME280;23062;13.952;100.608;2023-02-28T21:50:35;1013.73;;;28.91;48.33
37170;BME280;23062;13.952;100.608;2023-02-28T21:55:01;1013.70;;;28.90;48.30
37170;BME280;23062;13.952;100.608;2023-02-28T21:59:27;1013.75;;;28.86;48.32
37170;BME280;23062;13.952;100.608;2023-02-28T22:03:53;1013.72;;;28.60;48.88
37170;BME280;23062;13.952;100.608;2023-02-28T22:08:22;1013.72;;;28.38;49.44
37170;BME280;23062;13.952;100.608;2023-02-28T22:12:47;1013.72;;;28.32;49.58
37170;BME280;23062;13.952;100.608;2023-02-28T22:17:13;1013.69;;;28.24;49.87
37170;BME280;23062;13.952;100.608;2023-02-28T22:21:39;1013.72;;;28.13;50.33
37170;BME280;23062;13.952;100.608;2023-02-28T22:26:07;1013.75;;;27.98;50.96
37170;BME280;23062;13.952;100.608;2023-02-28T22:30:33;1013.80;;;27.97;50.98
37170;BME280;23062;13.952;100.608;2023-02-28T22:35:02;1013.85;;;27.98;50.85
37170;BME280;23062;13.952;100.608;2023-02-28T22:39:27;1013.89;;;27.97;51.00
37170;BME280;23062;13.952;100.608;2023-02-28T22:43:55;1013.96;;;27.93;51.12
37170;BME280;23062;13.952;100.608;2023-02-28T22:48:21;1014.01;;;27.90;51.47
37170;BME280;23062;13.952;100.608;2023-02-28T22:52:48;1014.05;;;28.30;50.47
37170;BME280;23062;13.952;100.608;2023-02-28T22:57:15;1014.18;;;28.45;50.01
37170;BME280;23062;13.952;100.608;2023-02-28T23:01:41;1014.18;;;28.53;49.65
37170;BME280;23062;13.952;100.608;2023-02-28T23:06:26;1014.20;;;28.56;49.61
37170;BME280;23062;13.952;100.608;2023-02-28T23:10:57;1014.25;;;28.57;49.46
37170;BME280;23062;13.952;100.608;2023-02-28T23:15:23;1014.26;;;28.57;49.22
37170;BME280;23062;13.952;100.608;2023-02-28T23:19:48;1014.34;;;28.56;49.41
37170;BME280;23062;13.952;100.608;2023-02-28T23:24:18;1014.38;;;28.56;49.44
37170;BME280;23062;13.952;100.608;2023-02-28T23:28:46;1014.44;;;28.56;49.44
37170;BME280;23062;13.952;100.608;2023-02-28T23:33:11;1014.46;;;28.54;49.45
37170;BME280;23062;13.952;100.608;2023-02-28T23:37:38;1014.56;;;28.53;49.49
37170;BME280;23062;13.952;100.608;2023-02-28T23:42:04;1014.60;;;28.52;49.36
37170;BME280;23062;13.952;100.608;2023-02-28T23:46:29;1014.69;;;28.51;49.35
37170;BME280;23062;13.952;100.608;2023-02-28T23:50:58;1014.73;;;28.51;49.40
37170;BME280;23062;13.952;100.608;2023-02-28T23:55:21;1014.75;;;28.50;49.57
37170;BME280;23062;13.952;100.608;2023-02-28T23:59:48;1014.86;;;28.49;49.57
